sensor_id;sensor_type;location;lat;lon;timestamp;pressure;altitude;pressure_sealevel;temperature;humidity
53699;BME280;68408;53.952;27.612;2023-04-01T00:01:00;994;;;6.6;74.1
53699;BME280;68408;53.952;27.612;2023-04-01T00:05:50;993.9;;;6.6;74.3
53699;BME280;68408;53.952;27.612;2023-04-01T00:11:32;993.9;;;6.6;74.4
53699;BME280;68408;53.952;27.612;2023-04-01T00:15:50;993.9;;;6.6;74.8
53699;BME280;68408;53.952;27.612;2023-04-01T00:20:51;993.9;;;6.6;74.7
53699;BME280;68408;53.952;27.612;2023-04-01T00:26:12;993.9;;;6.7;74.7
53699;BME280;68408;53.952;27.612;2023-04-01T00:30:58;993.9;;;6.7;74.8
53699;BME280;68408;53.952;27.612;2023-04-01T00:36:32;993.8;;;6.7;74.6
53699;BME280;68408;53.952;27.612;2023-04-01T00:41:09;993.8;;;6.7;74.5
53699;BME280;68408;53.952;27.612;2023-04-01T00:46:00;993.8;;;6.7;74.8
53699;BME280;68408;53.952;27.612;2023-04-01T00:51:23;993.8;;;6.7;75.1
53699;BME280;68408;53.952;27.612;2023-04-01T00:55:51;993.7;;;6.8;74.6
53699;BME280;68408;53.952;27.612;2023-04-01T01:01:28;993.7;;;6.7;74.7
53699;BME280;68408;53.952;27.612;2023-04-01T01:06:17;993.7;;;6.8;74.8
53699;BME280;68408;53.952;27.612;2023-04-01T01:10:50;993.7;;;6.8;74.8
53699;BME280;68408;53.952;27.612;2023-04-01T01:16:25;993.7;;;6.9;74.8
53699;BME280;68408;53.952;27.612;2023-04-01T01:22:03;993.7;;;6.9;74.3
53699;BME280;68408;53.952;27.612;2023-04-01T01:26:37;993.7;;;7;74.5
53699;BME280;68408;53.952;27.612;2023-04-01T01:31:01;993.7;;;7;74.3
53699;BME280;68408;53.952;27.612;2023-04-01T01:35:51;993.6;;;7.1;74
53699;BME280;68408;53.952;27.612;2023-04-01T01:41:08;993.6;;;7;74
53699;BME280;68408;53.952;27.612;2023-04-01T01:46:01;993.6;;;7.1;74.1
53699;BME280;68408;53.952;27.612;2023-04-01T01:51:30;993.6;;;7;74.2
53699;BME280;68408;53.952;27.612;2023-04-01T01:56:04;993.6;;;7;74.1
53699;BME280;68408;53.952;27.612;2023-04-01T02:01:07;993.7;;;7;74.2
53699;BME280;68408;53.952;27.612;2023-04-01T02:06:31;993.7;;;7;74.3
53699;BME280;68408;53.952;27.612;2023-04-01T02:11:01;993.7;;;7;74.2
53699;BME280;68408;53.952;27.612;2023-04-01T02:16:15;993.7;;;7.1;74.4
53699;BME280;68408;53.952;27.612;2023-04-01T02:21:14;993.7;;;7;74.4
53699;BME280;68408;53.952;27.612;2023-04-01T02:26:08;993.6;;;7;74.3
53699;BME280;68408;53.952;27.612;2023-04-01T02:31:30;993.6;;;6.9;74.5
53699;BME280;68408;53.952;27.612;2023-04-01T02:36:00;993.7;;;6.9;74.5
53699;BME280;68408;53.952;27.612;2023-04-01T02:41:14;993.8;;;6.9;74.3
53699;BME280;68408;53.952;27.612;2023-04-01T02:45:50;993.8;;;6.9;74.4
53699;BME280;68408;53.952;27.612;2023-04-01T02:51:14;993.8;;;6.9;74.4
53699;BME280;68408;53.952;27.612;2023-04-01T02:56:30;993.8;;;6.9;74.2
53699;BME280;68408;53.952;27.612;2023-04-01T03:00:50;993.8;;;6.9;74.3
53699;BME280;68408;53.952;27.612;2023-04-01T03:06:15;993.7;;;6.9;74.5
53699;BME280;68408;53.952;27.612;2023-04-01T03:11:14;993.7;;;6.8;74.4
53699;BME280;68408;53.952;27.612;2023-04-01T03:16:14;993.6;;;6.8;74.5
53699;BME280;68408;53.952;27.612;2023-04-01T03:21:30;993.5;;;6.8;74.6
53699;BME280;68408;53.952;27.612;2023-04-01T03:25:50;993.6;;;6.8;74.6
53699;BME280;68408;53.952;27.612;2023-04-01T03:31:14;993.7;;;6.8;74.5
53699;BME280;68408;53.952;27.612;2023-04-01T03:36:22;993.7;;;6.8;74.5
53699;BME280;68408;53.952;27.612;2023-04-01T03:41:15;993.7;;;6.8;74.4
53699;BME280;68408;53.952;27.612;2023-04-01T03:46:30;993.6;;;6.8;74.1
53699;BME280;68408;53.952;27.612;2023-04-01T03:50:50;993.6;;;6.7;74
53699;BME280;68408;53.952;27.612;2023-04-01T03:56:14;993.7;;;6.7;73.9
53699;BME280;68408;53.952;27.612;2023-04-01T04:01:15;993.7;;;6.7;73.9
53699;BME280;68408;53.952;27.612;2023-04-01T04:06:15;993.9;;;6.7;73.9
53699;BME280;68408;53.952;27.612;2023-04-01T04:11:24;994;;;6.7;73.7
53699;BME280;68408;53.952;27.612;2023-04-01T04:16:06;994;;;6.7;73.9
53699;BME280;68408;53.952;27.612;2023-04-01T04:21:14;994;;;6.8;73.8
53699;BME280;68408;53.952;27.612;2023-04-01T04:26:05;993.9;;;6.8;73.5
53699;BME280;68408;53.952;27.612;2023-04-01T04:31:17;993.9;;;6.8;73.5
53699;BME280;68408;53.952;27.612;2023-04-01T04:36:30;993.8;;;6.8;73.6
53699;BME280;68408;53.952;27.612;2023-04-01T04:40:50;993.8;;;6.9;73.3
53699;BME280;68408;53.952;27.612;2023-04-01T04:46:14;993.9;;;6.9;73.2
53699;BME280;68408;53.952;27.612;2023-04-01T04:51:14;993.9;;;7;73
53699;BME280;68408;53.952;27.612;2023-04-01T04:56:17;994;;;7.1;72.8
53699;BME280;68408;53.952;27.612;2023-04-01T05:01:30;994;;;7.1;72.5
53699;BME280;68408;53.952;27.612;2023-04-01T05:06:00;994;;;7.1;72.4
53699;BME280;68408;53.952;27.612;2023-04-01T05:11:16;993.9;;;7.2;72.3
53699;BME280;68408;53.952;27.612;2023-04-01T05:16:16;993.8;;;7.5;71.7
53699;BME280;68408;53.952;27.612;2023-04-01T05:21:15;993.7;;;7.8;71
53699;BME280;68408;53.952;27.612;2023-04-01T05:26:16;993.8;;;8;70.5
53699;BME280;68408;53.952;27.612;2023-04-01T05:30:50;993.7;;;8.1;70.2
53699;BME280;68408;53.952;27.612;2023-04-01T05:36:30;993.8;;;8.1;70
53699;BME280;68408;53.952;27.612;2023-04-01T05:41:20;993.9;;;8.1;70
53699;BME280;68408;53.952;27.612;2023-04-01T05:46:30;993.9;;;8.3;69.5
53699;BME280;68408;53.952;27.612;2023-04-01T05:51:11;993.9;;;8.4;69.2
53699;BME280;68408;53.952;27.612;2023-04-01T05:55:50;993.9;;;8.4;68.9
53699;BME280;68408;53.952;27.612;2023-04-01T06:01:01;993.8;;;8.5;68.9
53699;BME280;68408;53.952;27.612;2023-04-01T06:06:23;993.8;;;8.5;68.8
53699;BME280;68408;53.952;27.612;2023-04-01T06:11:34;993.8;;;8.5;68.9
53699;BME280;68408;53.952;27.612;2023-04-01T06:16:10;993.8;;;8.7;68.5
53699;BME280;68408;53.952;27.612;2023-04-01T06:21:01;993.8;;;8.8;68.3
53699;BME280;68408;53.952;27.612;2023-04-01T06:26:03;993.8;;;8.9;68.3
53699;BME280;68408;53.952;27.612;2023-04-01T06:31:22;993.9;;;9.2;67.8
53699;BME280;68408;53.952;27.612;2023-04-01T06:36:35;993.9;;;9.4;67.1
53699;BME280;68408;53.952;27.612;2023-04-01T06:41:13;993.9;;;9.5;66.7
53699;BME280;68408;53.952;27.612;2023-04-01T06:46:01;993.9;;;9.6;66.6
53699;BME280;68408;53.952;27.612;2023-04-01T06:51:11;993.9;;;9.7;66.7
53699;BME280;68408;53.952;27.612;2023-04-01T06:56:21;994;;;9.9;66.3
53699;BME280;68408;53.952;27.612;2023-04-01T07:01:32;994;;;10.2;65.8
53699;BME280;68408;53.952;27.612;2023-04-01T07:05:50;993.9;;;10.5;65.4
53699;BME280;68408;53.952;27.612;2023-04-01T07:11:00;993.9;;;10.8;64.5
53699;BME280;68408;53.952;27.612;2023-04-01T07:15:54;993.9;;;10.8;64.1
53699;BME280;68408;53.952;27.612;2023-04-01T07:21:00;994;;;10.9;64
53699;BME280;68408;53.952;27.612;2023-04-01T07:26:30;994.1;;;10.8;64
53699;BME280;68408;53.952;27.612;2023-04-01T07:31:04;994.1;;;10.6;64.2
53699;BME280;68408;53.952;27.612;2023-04-01T07:36:01;994.1;;;10.3;65
53699;BME280;68408;53.952;27.612;2023-04-01T07:41:09;994.2;;;10.2;65.7
53699;BME280;68408;53.952;27.612;2023-04-01T07:46:24;994.2;;;10;66.2
53699;BME280;68408;53.952;27.612;2023-04-01T07:51:31;994.3;;;10;66.6
53699;BME280;68408;53.952;27.612;2023-04-01T07:56:09;994.3;;;10;66.7
53699;BME280;68408;53.952;27.612;2023-04-01T08:01:01;994.4;;;9.9;67
53699;BME280;68408;53.952;27.612;2023-04-01T08:05:53;994.4;;;9.9;67.2
53699;BME280;68408;53.952;27.612;2023-04-01T08:11:24;994.4;;;10;67.4
53699;BME280;68408;53.952;27.612;2023-04-01T08:16:31;994.5;;;10;67.4
53699;BME280;68408;53.952;27.612;2023-04-01T08:21:10;994.4;;;9.9;67.5
53699;BME280;68408;53.952;27.612;2023-04-01T08:26:10;994.5;;;9.9;67.5
53699;BME280;68408;53.952;27.612;2023-04-01T08:31:16;994.5;;;9.9;67.5
53699;BME280;68408;53.952;27.612;2023-04-01T09:11:12;994.4;;;9.5;69.5
53699;BME280;68408;53.952;27.612;2023-04-01T09:16:04;994.3;;;9.4;69.5
53699;BME280;68408;53.952;27.612;2023-04-01T09:21:12;994.2;;;9.2;70
53699;BME280;68408;53.952;27.612;2023-04-01T09:26:26;994.2;;;9.1;70.5
53699;BME280;68408;53.952;27.612;2023-04-01T09:31:38;994.2;;;9.1;70.8
53699;BME280;68408;53.952;27.612;2023-04-01T09:36:11;994.3;;;9.1;71
53699;BME280;68408;53.952;27.612;2023-04-01T09:41:11;994.3;;;9.1;70.9
53699;BME280;68408;53.952;27.612;2023-04-01T09:46:11;994.4;;;9.2;70.6
53699;BME280;68408;53.952;27.612;2023-04-01T09:51:23;994.4;;;9.2;70.5
53699;BME280;68408;53.952;27.612;2023-04-01T09:57:09;994.4;;;9.3;70.2
53699;BME280;68408;53.952;27.612;2023-04-01T10:01:39;994.5;;;9.3;70.1
53699;BME280;68408;53.952;27.612;2023-04-01T10:05:56;994.5;;;9.4;70
53699;BME280;68408;53.952;27.612;2023-04-01T10:11:11;994.5;;;9.5;69.8
53699;BME280;68408;53.952;27.612;2023-04-01T10:17:28;994.6;;;9.6;69.6
53699;BME280;68408;53.952;27.612;2023-04-01T10:21:53;994.6;;;9.7;69.5
53699;BME280;68408;53.952;27.612;2023-04-01T10:26:26;994.6;;;9.9;69.1
53699;BME280;68408;53.952;27.612;2023-04-01T10:31:13;994.6;;;10;68.8
53699;BME280;68408;53.952;27.612;2023-04-01T10:36:26;994.6;;;10.1;68.3
53699;BME280;68408;53.952;27.612;2023-04-01T10:41:23;994.6;;;10.3;67.8
53699;BME280;68408;53.952;27.612;2023-04-01T10:46:35;994.6;;;10.5;67.3
53699;BME280;68408;53.952;27.612;2023-04-01T10:51:35;994.6;;;10.5;66.9
53699;BME280;68408;53.952;27.612;2023-04-01T10:56:18;994.7;;;10.4;66.9
53699;BME280;68408;53.952;27.612;2023-04-01T11:01:05;994.7;;;10.4;66.9
53699;BME280;68408;53.952;27.612;2023-04-01T11:11:39;994.7;;;10.2;67.4
53699;BME280;68408;53.952;27.612;2023-04-01T11:16:27;994.7;;;10.2;67.3
53699;BME280;68408;53.952;27.612;2023-04-01T11:21:20;994.7;;;10.2;67.8
53699;BME280;68408;53.952;27.612;2023-04-01T11:26:08;994.7;;;10.2;67.8
53699;BME280;68408;53.952;27.612;2023-04-01T11:31:23;994.8;;;10.2;67.8
53699;BME280;68408;53.952;27.612;2023-04-01T11:36:32;994.8;;;10.3;67.8
53699;BME280;68408;53.952;27.612;2023-04-01T11:41:24;994.8;;;10.3;68
53699;BME280;68408;53.952;27.612;2023-04-01T11:46:00;994.8;;;10.5;67.8
53699;BME280;68408;53.952;27.612;2023-04-01T11:50:55;994.7;;;10.5;67.8
53699;BME280;68408;53.952;27.612;2023-04-01T11:56:27;994.7;;;10.7;67.6
53699;BME280;68408;53.952;27.612;2023-04-01T12:01:33;994.8;;;10.7;67.7
53699;BME280;68408;53.952;27.612;2023-04-01T12:06:05;994.7;;;10.7;67.9
53699;BME280;68408;53.952;27.612;2023-04-01T12:11:08;994.7;;;10.7;68.3
53699;BME280;68408;53.952;27.612;2023-04-01T12:16:26;994.7;;;10.9;68
53699;BME280;68408;53.952;27.612;2023-04-01T12:21:23;994.7;;;11.1;67.6
53699;BME280;68408;53.952;27.612;2023-04-01T12:26:32;994.7;;;11.3;67.4
53699;BME280;68408;53.952;27.612;2023-04-01T12:31:25;994.7;;;11.3;67.1
53699;BME280;68408;53.952;27.612;2023-04-01T12:36:10;994.7;;;11.3;67.5
53699;BME280;68408;53.952;27.612;2023-04-01T12:41:08;994.8;;;11.3;67.5
53699;BME280;68408;53.952;27.612;2023-04-01T12:46:19;994.8;;;11.4;67.3
53699;BME280;68408;53.952;27.612;2023-04-01T12:51:46;994.8;;;11.4;67.3
53699;BME280;68408;53.952;27.612;2023-04-01T12:56:22;994.9;;;11.3;67.7
53699;BME280;68408;53.952;27.612;2023-04-01T13:00:55;994.9;;;11.2;68
53699;BME280;68408;53.952;27.612;2023-04-01T13:06:20;995;;;11.2;68.1
53699;BME280;68408;53.952;27.612;2023-04-01T13:11:14;995;;;11.2;68.1
53699;BME280;68408;53.952;27.612;2023-04-01T13:16:31;995.1;;;11.2;68.4
53699;BME280;68408;53.952;27.612;2023-04-01T13:21:21;995.1;;;11.1;68.3
53699;BME280;68408;53.952;27.612;2023-04-01T13:26:01;995.1;;;11;68.9
53699;BME280;68408;53.952;27.612;2023-04-01T13:31:09;995.2;;;10.9;69.4
53699;BME280;68408;53.952;27.612;2023-04-01T13:36:23;995.3;;;10.8;69.8
53699;BME280;68408;53.952;27.612;2023-04-01T13:41:35;995.3;;;10.7;70
53699;BME280;68408;53.952;27.612;2023-04-01T13:46:28;995.3;;;10.7;70.5
53699;BME280;68408;53.952;27.612;2023-04-01T13:51:18;995.3;;;10.6;70.8
53699;BME280;68408;53.952;27.612;2023-04-01T13:55:53;995.4;;;10.6;71
53699;BME280;68408;53.952;27.612;2023-04-01T14:01:25;995.4;;;10.6;71.2
53699;BME280;68408;53.952;27.612;2023-04-01T14:06:37;995.4;;;10.5;71.6
53699;BME280;68408;53.952;27.612;2023-04-01T14:11:19;995.4;;;10.4;72
53699;BME280;68408;53.952;27.612;2023-04-01T14:16:14;995.4;;;10.3;72.3
53699;BME280;68408;53.952;27.612;2023-04-01T14:20:51;995.4;;;10.2;72.7
53699;BME280;68408;53.952;27.612;2023-04-01T14:26:19;995.5;;;10.2;72.8
53699;BME280;68408;53.952;27.612;2023-04-01T14:31:27;995.5;;;10.1;73
53699;BME280;68408;53.952;27.612;2023-04-01T14:36:39;995.5;;;10.1;73.2
53699;BME280;68408;53.952;27.612;2023-04-01T14:41:04;995.5;;;10.1;73.2
53699;BME280;68408;53.952;27.612;2023-04-01T14:46:14;995.6;;;10.1;73.2
53699;BME280;68408;53.952;27.612;2023-04-01T14:51:09;995.5;;;10.1;73.4
53699;BME280;68408;53.952;27.612;2023-04-01T14:56:15;995.5;;;10.1;73.6
53699;BME280;68408;53.952;27.612;2023-04-01T15:01:35;995.6;;;10.1;73.6
53699;BME280;68408;53.952;27.612;2023-04-01T15:05:52;995.6;;;10.1;73.7
53699;BME280;68408;53.952;27.612;2023-04-01T15:11:26;995.6;;;10.1;73.7
53699;BME280;68408;53.952;27.612;2023-04-01T15:16:11;995.6;;;10.1;73.7
53699;BME280;68408;53.952;27.612;2023-04-01T15:21:25;995.6;;;10;73.8
53699;BME280;68408;53.952;27.612;2023-04-01T15:26:49;995.6;;;10;74
53699;BME280;68408;53.952;27.612;2023-04-01T15:30:53;995.7;;;10;74
53699;BME280;68408;53.952;27.612;2023-04-01T15:36:12;995.7;;;10.1;74
53699;BME280;68408;53.952;27.612;2023-04-01T15:41:07;995.7;;;10.1;74
53699;BME280;68408;53.952;27.612;2023-04-01T15:46:24;995.7;;;10.1;74
53699;BME280;68408;53.952;27.612;2023-04-01T15:51:37;995.8;;;10.1;74
53699;BME280;68408;53.952;27.612;2023-04-01T15:56:12;995.8;;;10.1;74.1
53699;BME280;68408;53.952;27.612;2023-04-01T16:01:34;995.8;;;10.1;74.1
53699;BME280;68408;53.952;27.612;2023-04-01T16:06:12;995.8;;;10.1;74.4
53699;BME280;68408;53.952;27.612;2023-04-01T16:16:37;995.9;;;10.2;74.1
53699;BME280;68408;53.952;27.612;2023-04-01T16:26:15;996;;;10.1;74.3
53699;BME280;68408;53.952;27.612;2023-04-01T16:30:55;996;;;10.1;74.3
53699;BME280;68408;53.952;27.612;2023-04-01T16:36:24;996;;;10;74.5
53699;BME280;68408;53.952;27.612;2023-04-01T16:41:33;996.1;;;10;74.4
53699;BME280;68408;53.952;27.612;2023-04-01T16:46:14;996.1;;;10;74.5
53699;BME280;68408;53.952;27.612;2023-04-01T16:51:02;996.1;;;10;74.3
53699;BME280;68408;53.952;27.612;2023-04-01T17:06:31;996.1;;;10;74.3
53699;BME280;68408;53.952;27.612;2023-04-01T17:11:02;996.2;;;9.9;74.4
53699;BME280;68408;53.952;27.612;2023-04-01T17:16:14;996.2;;;9.9;74.4
53699;BME280;68408;53.952;27.612;2023-04-01T17:20:53;996.3;;;9.9;74.5
53699;BME280;68408;53.952;27.612;2023-04-01T17:26:20;996.3;;;9.8;74.7
53699;BME280;68408;53.952;27.612;2023-04-01T17:31:37;996.3;;;9.8;74.8
53699;BME280;68408;53.952;27.612;2023-04-01T17:35:59;996.3;;;9.9;74.6
53699;BME280;68408;53.952;27.612;2023-04-01T17:46:27;996.4;;;9.9;74.4
53699;BME280;68408;53.952;27.612;2023-04-01T18:01:26;996.4;;;9.9;74.4
53699;BME280;68408;53.952;27.612;2023-04-01T18:16:21;996.5;;;10;73.8
